createdAt,value
2022-11-12T00:01:05.395Z,2.47
2022-11-12T00:03:32.540Z,2.88
2022-11-12T00:05:59.292Z,3.40
2022-11-12T00:08:28.062Z,2.38
2022-11-12T00:11:02.508Z,2.33
2022-11-12T00:13:29.272Z,2.00
2022-11-12T00:15:57.062Z,1.60
2022-11-12T00:18:24.154Z,1.58
2022-11-12T00:20:51.258Z,1.35
2022-11-12T00:23:18.060Z,2.00
2022-11-12T00:25:44.909Z,1.90
2022-11-12T00:28:11.722Z,1.30
2022-11-12T00:30:39.527Z,1.52
2022-11-12T00:33:06.958Z,1.13
2022-11-12T00:35:35.137Z,0.82
2022-11-12T00:38:02.012Z,0.75
2022-11-12T00:40:29.226Z,0.98
2022-11-12T00:42:56.392Z,0.98
2022-11-12T00:45:24.253Z,2.00
2022-11-12T00:47:55.923Z,0.95
2022-11-12T00:50:23.117Z,0.75
2022-11-12T00:52:53.081Z,0.63
2022-11-12T00:55:20.107Z,0.70
2022-11-12T00:57:46.896Z,0.88
2022-11-12T01:00:17.501Z,0.70
2022-11-12T01:02:49.372Z,0.88
2022-11-12T01:05:17.776Z,0.80
2022-11-12T01:07:44.825Z,0.50
2022-11-12T01:10:12.230Z,0.90
2022-11-12T01:16:15.820Z,0.40
2022-11-12T01:18:44.043Z,0.68
2022-11-12T01:21:11.115Z,0.80
2022-11-12T01:23:40.712Z,0.90
2022-11-12T01:26:19.238Z,0.80
2022-11-12T01:28:46.158Z,0.75
2022-11-12T01:31:25.344Z,0.63
2022-11-12T01:33:57.686Z,1.35
2022-11-12T01:36:26.236Z,0.70
2022-11-12T01:38:54.291Z,0.73
2022-11-12T01:41:26.975Z,0.50
2022-11-12T01:44:20.522Z,0.52
2022-11-12T01:47:11.971Z,0.47
2022-11-12T01:50:06.940Z,0.70
2022-11-12T01:52:46.683Z,0.50
2022-11-12T01:55:16.996Z,0.40
2022-11-12T01:57:51.702Z,0.60
2022-11-12T02:00:18.594Z,0.52
2022-11-12T02:02:57.502Z,1.10
2022-11-12T02:05:27.438Z,0.75
2022-11-12T02:07:56.261Z,0.90
2022-11-12T02:10:23.582Z,0.77
2022-11-12T02:13:11.342Z,0.80
2022-11-12T02:15:38.930Z,0.40
2022-11-12T02:18:06.339Z,0.40
2022-11-12T02:20:35.623Z,0.47
2022-11-12T02:23:03.819Z,0.38
2022-11-12T02:25:32.571Z,0.80
2022-11-12T02:28:00.958Z,0.40
2022-11-12T02:30:42.382Z,0.32
2022-11-12T02:33:09.197Z,0.50
2022-11-12T02:35:36.271Z,0.60
2022-11-12T02:38:04.250Z,0.60
2022-11-12T02:40:33.688Z,0.75
2022-11-12T02:43:00.864Z,0.70
2022-11-12T02:45:28.143Z,0.30
2022-11-12T02:47:54.924Z,0.52
2022-11-12T02:50:21.799Z,1.20
2022-11-12T02:52:48.583Z,2.33
2022-11-12T02:55:15.502Z,1.95
2022-11-12T02:57:42.270Z,2.30
2022-11-12T03:00:11.944Z,3.75
2022-11-12T03:02:42.947Z,1.00
2022-11-12T03:05:11.217Z,0.85
2022-11-12T03:07:38.781Z,2.00
2022-11-12T03:10:06.561Z,2.80
2022-11-12T03:12:33.567Z,3.72
2022-11-12T03:15:00.378Z,1.90
2022-11-12T03:17:27.148Z,0.82
2022-11-12T03:19:53.925Z,0.90
2022-11-12T03:22:20.707Z,1.33
2022-11-12T03:24:47.684Z,0.60
2022-11-12T03:27:14.436Z,0.90
2022-11-12T03:29:41.322Z,0.90
2022-11-12T03:32:08.088Z,0.60
2022-11-12T03:34:34.855Z,0.47
2022-11-12T03:37:01.658Z,0.70
2022-11-12T03:39:28.448Z,0.70
2022-11-12T03:41:55.210Z,0.40
2022-11-12T03:44:21.954Z,0.50
2022-11-12T03:46:48.770Z,0.40
2022-11-12T03:49:15.648Z,0.30
2022-11-12T03:51:42.527Z,0.47
2022-11-12T03:54:09.350Z,0.38
2022-11-12T03:56:36.131Z,0.30
2022-11-12T03:59:02.953Z,0.85
2022-11-12T04:01:29.699Z,0.57
2022-11-12T04:03:56.710Z,0.40
2022-11-12T04:06:42.671Z,0.40
2022-11-12T04:09:09.593Z,0.40
2022-11-12T04:11:36.438Z,0.30
2022-11-12T04:14:03.291Z,0.20
2022-11-12T04:16:48.386Z,0.80
2022-11-12T04:19:33.777Z,0.77
2022-11-12T04:22:07.642Z,0.50
2022-11-12T04:24:58.754Z,0.40
2022-11-12T04:27:34.166Z,0.50
2022-11-12T04:30:16.375Z,0.30
2022-11-12T04:32:54.767Z,0.82
2022-11-12T04:35:23.578Z,0.40
2022-11-12T04:37:50.590Z,0.40
2022-11-12T04:40:40.026Z,0.45
2022-11-12T04:43:28.204Z,0.30
2022-11-12T04:45:56.474Z,0.40
2022-11-12T04:48:27.930Z,0.30
2022-11-12T04:50:58.985Z,0.63
2022-11-12T04:53:26.315Z,0.40
2022-11-12T04:55:55.186Z,0.65
2022-11-12T04:58:22.759Z,0.63
2022-11-12T05:00:50.714Z,0.75
2022-11-12T05:03:18.299Z,0.40
2022-11-12T05:05:45.095Z,0.38
2022-11-12T05:08:11.880Z,0.50
2022-11-12T05:10:38.696Z,0.52
2022-11-12T05:13:05.515Z,0.60
2022-11-12T05:15:32.302Z,0.40
2022-11-12T05:17:59.141Z,0.40
2022-11-12T05:20:26.109Z,0.50
2022-11-12T05:23:06.249Z,0.43
2022-11-12T05:25:35.846Z,0.40
2022-11-12T05:28:02.699Z,0.30
2022-11-12T05:30:29.512Z,0.50
2022-11-12T05:32:56.353Z,0.43
2022-11-12T05:35:23.149Z,0.30
2022-11-12T05:37:49.865Z,0.60
2022-11-12T05:40:17.723Z,0.30
2022-11-12T05:42:45.309Z,0.50
2022-11-12T05:45:12.315Z,0.43
2022-11-12T05:47:39.108Z,0.47
2022-11-12T05:50:06.381Z,1.10
2022-11-12T05:52:33.132Z,0.70
2022-11-12T05:54:59.877Z,0.80
2022-11-12T05:57:27.925Z,0.60
2022-11-12T05:59:54.688Z,1.75
2022-11-12T06:02:21.837Z,1.83
2022-11-12T06:04:48.655Z,1.60
2022-11-12T06:07:15.474Z,1.30
2022-11-12T06:09:42.249Z,1.20
2022-11-12T06:12:09.061Z,1.33
2022-11-12T06:14:36.083Z,1.10
2022-11-12T06:17:02.964Z,1.17
2022-11-12T06:19:30.192Z,1.48
2022-11-12T06:21:57.052Z,1.50
2022-11-12T06:24:24.092Z,1.60
2022-11-12T06:29:31.705Z,1.48
2022-11-12T06:31:58.442Z,1.55
2022-11-12T06:34:25.260Z,1.20
2022-11-12T06:36:52.402Z,1.45
2022-11-12T06:39:19.507Z,1.58
2022-11-12T06:41:46.351Z,1.30
2022-11-12T06:44:14.683Z,0.70
2022-11-12T06:46:44.865Z,0.80
2022-11-12T06:49:11.752Z,1.05
2022-11-12T06:51:40.112Z,1.02
2022-11-12T06:54:07.098Z,1.13
2022-11-12T06:56:33.912Z,0.90
2022-11-12T06:59:00.796Z,0.88
2022-11-12T07:01:27.652Z,1.33
2022-11-12T07:03:55.012Z,0.70
2022-11-12T07:06:21.765Z,2.60
2022-11-12T07:08:51.640Z,5.63
2022-11-12T07:11:19.599Z,4.82
2022-11-12T07:13:47.466Z,1.77
2022-11-12T07:16:18.614Z,2.15
2022-11-12T07:18:49.739Z,1.40
2022-11-12T07:21:19.390Z,1.02
2022-11-12T07:23:48.086Z,1.80
2022-11-12T07:26:24.164Z,3.00
2022-11-12T07:28:53.809Z,4.00
2022-11-12T07:31:20.920Z,4.35
2022-11-12T07:33:50.547Z,3.40
2022-11-12T07:36:19.328Z,3.05
2022-11-12T07:38:54.848Z,3.42
2022-11-12T07:41:24.972Z,3.13
2022-11-12T07:43:54.073Z,3.50
2022-11-12T07:46:27.423Z,7.07
2022-11-12T07:48:54.984Z,6.85
2022-11-12T07:51:24.487Z,7.32
2022-11-12T07:53:59.508Z,7.88
2022-11-12T07:56:28.408Z,7.50
2022-11-12T07:58:56.398Z,7.90
2022-11-12T08:01:32.642Z,7.72
2022-11-12T08:04:01.645Z,7.95
2022-11-12T08:06:30.221Z,7.57
2022-11-12T08:08:59.073Z,8.20
2022-11-12T08:11:26.588Z,8.20
2022-11-12T08:13:56.283Z,8.15
2022-11-12T08:16:23.956Z,9.32
2022-11-12T08:21:37.418Z,8.73
2022-11-12T08:24:04.761Z,9.63
2022-11-12T08:26:31.564Z,9.63
2022-11-12T08:29:00.125Z,8.57
2022-11-12T08:31:28.442Z,9.05
2022-11-12T08:33:55.325Z,8.75
2022-11-12T08:36:23.599Z,9.70
2022-11-12T08:38:53.779Z,7.63
2022-11-12T08:41:21.670Z,6.07
2022-11-12T08:43:48.638Z,7.72
2022-11-12T08:46:16.637Z,8.32
2022-11-12T08:48:44.082Z,9.73
2022-11-12T08:51:23.826Z,10.35
2022-11-12T08:53:51.595Z,9.20
2022-11-12T08:56:18.777Z,8.80
2022-11-12T08:58:48.221Z,9.40
2022-11-12T09:01:15.357Z,12.05
2022-11-12T09:03:43.595Z,12.52
2022-11-12T09:06:11.469Z,12.77
2022-11-12T09:08:39.963Z,11.27
2022-11-12T09:11:06.932Z,10.48
2022-11-12T09:13:35.773Z,10.45
2022-11-12T09:16:07.603Z,10.60
2022-11-12T09:18:35.318Z,10.50
2022-11-12T09:21:08.407Z,11.95
2022-11-12T09:23:35.957Z,15.75
2022-11-12T09:26:04.654Z,12.07
2022-11-12T09:28:32.177Z,10.75
2022-11-12T09:30:59.181Z,10.35
2022-11-12T09:33:53.923Z,10.65
2022-11-12T09:36:25.536Z,10.38
2022-11-12T09:38:54.690Z,11.52
2022-11-12T09:41:29.768Z,12.07
2022-11-12T09:44:31.731Z,11.68
2022-11-12T09:47:16.079Z,10.43
2022-11-12T09:50:03.825Z,11.13
2022-11-12T09:52:30.908Z,10.35
2022-11-12T09:55:26.902Z,11.38
2022-11-12T09:57:54.240Z,11.75
2022-11-12T10:00:24.089Z,11.82
2022-11-12T10:03:07.876Z,11.43
2022-11-12T10:05:41.069Z,11.80
2022-11-12T10:08:14.917Z,11.52
2022-11-12T10:10:58.665Z,11.75
2022-11-12T10:14:04.859Z,10.70
2022-11-12T10:17:07.472Z,11.57
2022-11-12T10:20:23.523Z,11.05
2022-11-12T10:22:58.697Z,10.88
2022-11-12T10:25:26.098Z,12.43
2022-11-12T10:27:55.985Z,11.77
2022-11-12T10:30:34.704Z,11.60
2022-11-12T10:33:05.818Z,10.57
2022-11-12T10:35:34.690Z,10.17
2022-11-12T10:38:09.045Z,9.88
2022-11-12T10:40:39.912Z,10.45
2022-11-12T10:43:15.920Z,9.95
2022-11-12T10:45:49.691Z,10.20
2022-11-12T10:48:29.249Z,10.30
2022-11-12T10:53:59.147Z,9.95
2022-11-12T11:02:32.554Z,9.57
2022-11-12T11:04:59.712Z,9.98
2022-11-12T11:07:26.860Z,10.02
2022-11-12T11:09:59.415Z,9.55
2022-11-12T11:12:35.148Z,9.23
2022-11-12T11:15:27.200Z,8.98
2022-11-12T11:18:01.076Z,8.80
2022-11-12T11:20:47.924Z,8.80
2022-11-12T11:23:31.779Z,8.88
2022-11-12T11:26:07.027Z,8.88
2022-11-12T11:28:44.166Z,8.75
2022-11-12T11:31:40.409Z,9.43
2022-11-12T11:34:31.245Z,9.15
2022-11-12T11:37:14.953Z,9.00
2022-11-12T11:40:16.185Z,8.80
2022-11-12T11:43:08.058Z,9.18
2022-11-12T11:45:41.017Z,9.43
2022-11-12T11:48:20.027Z,8.93
2022-11-12T11:51:34.312Z,7.80
2022-11-12T11:54:31.947Z,8.70
2022-11-12T11:57:03.009Z,8.35
2022-11-12T12:00:00.757Z,9.00
2022-11-12T12:03:06.282Z,9.15
2022-11-12T12:06:06.278Z,9.05
2022-11-12T12:11:30.704Z,8.77
2022-11-12T12:14:35.570Z,9.52
2022-11-12T12:17:08.331Z,9.57
2022-11-12T12:19:39.109Z,9.20
2022-11-12T12:22:13.889Z,8.77
2022-11-12T12:25:12.913Z,8.77
2022-11-12T12:33:55.388Z,7.82
2022-11-12T12:36:37.588Z,8.82
2022-11-12T12:39:27.346Z,9.73
2022-11-12T12:42:06.354Z,9.93
2022-11-12T12:45:00.714Z,9.30
2022-11-12T12:47:43.797Z,8.93
2022-11-12T12:50:20.273Z,8.93
2022-11-12T12:53:00.670Z,8.43
2022-11-12T12:55:40.626Z,7.85
2022-11-12T12:58:17.628Z,10.55
2022-11-12T13:01:01.136Z,9.25
2022-11-12T13:03:46.042Z,12.23
2022-11-12T13:06:23.780Z,12.35
2022-11-12T13:08:56.314Z,12.75
2022-11-12T13:12:06.998Z,13.27
2022-11-12T13:14:40.177Z,13.50
2022-11-12T13:17:33.655Z,14.13
2022-11-12T13:20:03.840Z,15.57
2022-11-12T13:22:41.070Z,15.93
2022-11-12T13:25:10.994Z,16.50
2022-11-12T13:27:43.670Z,16.45
2022-11-12T13:30:13.965Z,17.35
2022-11-12T13:32:46.691Z,18.15
2022-11-12T13:35:22.461Z,18.35
2022-11-12T13:37:55.801Z,17.52
2022-11-12T13:40:50.882Z,18.40
2022-11-12T13:43:18.990Z,17.77
2022-11-12T13:46:00.426Z,18.77
2022-11-12T13:48:47.988Z,18.50
2022-11-12T13:51:17.340Z,19.83
2022-11-12T13:53:44.660Z,20.08
2022-11-12T13:56:12.569Z,21.20
2022-11-12T13:58:42.112Z,22.65
2022-11-12T14:01:12.146Z,22.05
2022-11-12T14:03:46.692Z,22.42
2022-11-12T14:06:32.486Z,22.00
2022-11-12T14:09:27.523Z,22.08
2022-11-12T14:12:03.829Z,23.00
2022-11-12T14:14:58.321Z,23.45
2022-11-12T14:17:36.349Z,23.13
2022-11-12T14:20:06.174Z,23.23
2022-11-12T14:22:42.164Z,22.83
2022-11-12T14:25:27.060Z,23.00
2022-11-12T14:27:55.870Z,23.85
2022-11-12T14:30:36.106Z,25.73
2022-11-12T14:33:22.418Z,25.48
2022-11-12T14:35:51.642Z,25.55
2022-11-12T14:38:20.735Z,25.95
2022-11-12T14:40:58.733Z,25.33
2022-11-12T14:43:34.347Z,26.05
2022-11-12T14:46:07.343Z,24.38
2022-11-12T14:48:48.741Z,25.83
2022-11-12T14:51:25.587Z,26.38
2022-11-12T14:54:04.419Z,24.92
2022-11-12T14:56:45.312Z,28.05
2022-11-12T14:59:14.622Z,25.17
2022-11-12T15:02:29.419Z,25.75
2022-11-12T15:05:01.668Z,25.25
2022-11-12T15:07:38.692Z,25.75
2022-11-12T15:10:42.238Z,28.38
2022-11-12T15:13:19.090Z,26.98
2022-11-12T15:16:24.943Z,28.63
2022-11-12T15:19:04.521Z,26.58
2022-11-12T15:21:33.939Z,24.85
2022-11-12T15:24:12.938Z,24.38
2022-11-12T15:26:42.463Z,25.23
2022-11-12T15:29:15.345Z,26.02
2022-11-12T15:31:45.405Z,27.00
2022-11-12T15:34:33.569Z,30.70
2022-11-12T15:37:12.703Z,29.55
2022-11-12T15:39:43.112Z,29.20
2022-11-12T15:42:23.742Z,26.45
2022-11-12T15:44:52.211Z,27.60
2022-11-12T15:47:24.637Z,29.20
2022-11-12T15:49:53.578Z,29.92
2022-11-12T15:52:22.313Z,26.63
2022-11-12T15:57:33.585Z,28.40
2022-11-12T16:00:07.830Z,31.25
2022-11-12T16:02:35.857Z,35.47
2022-11-12T16:05:02.834Z,39.75
2022-11-12T16:07:29.724Z,40.72
2022-11-12T16:09:56.970Z,38.17
2022-11-12T16:12:24.413Z,41.88
2022-11-12T16:14:51.335Z,39.70
2022-11-12T16:17:19.064Z,36.75
2022-11-12T16:19:45.845Z,34.70
2022-11-12T16:22:12.817Z,39.58
2022-11-12T16:24:42.914Z,38.00
2022-11-12T16:27:16.339Z,39.10
2022-11-12T16:29:43.329Z,31.95
2022-11-12T16:32:14.518Z,33.75
2022-11-12T16:34:42.359Z,36.03
2022-11-12T16:37:13.178Z,56.55
2022-11-12T16:39:40.389Z,58.65
2022-11-12T16:42:10.312Z,46.15
2022-11-12T16:44:40.723Z,37.53
2022-11-12T16:47:13.144Z,37.28
2022-11-12T16:49:44.051Z,35.70
2022-11-12T16:52:11.810Z,34.67
2022-11-12T16:54:38.760Z,31.88
2022-11-12T16:57:05.558Z,39.97
2022-11-12T16:59:32.378Z,39.45
2022-11-12T17:02:04.533Z,31.70
2022-11-12T17:04:31.452Z,27.80
2022-11-12T17:06:58.274Z,26.70
2022-11-12T17:09:25.959Z,26.73
2022-11-12T17:11:52.818Z,27.55
2022-11-12T17:14:24.293Z,28.85
2022-11-12T17:16:55.800Z,30.27
2022-11-12T17:19:23.260Z,28.88
2022-11-12T17:21:51.118Z,28.38
2022-11-12T17:24:18.359Z,27.17
2022-11-12T17:26:46.636Z,27.27
2022-11-12T17:29:13.596Z,31.50
2022-11-12T17:31:40.343Z,30.90
2022-11-12T17:34:08.144Z,24.50
2022-11-12T17:36:38.083Z,23.55
2022-11-12T17:39:13.581Z,33.50
2022-11-12T17:41:40.564Z,27.17
2022-11-12T17:44:10.606Z,22.85
2022-11-12T17:46:37.578Z,20.73
2022-11-12T17:49:04.991Z,21.95
2022-11-12T17:51:35.239Z,19.00
2022-11-12T17:54:04.428Z,14.25
2022-11-12T17:56:37.068Z,14.50
2022-11-12T17:59:05.228Z,14.88
2022-11-12T18:01:34.326Z,15.85
2022-11-12T18:04:01.973Z,15.63
2022-11-12T18:06:35.601Z,16.83
2022-11-12T18:09:05.167Z,16.33
2022-11-12T18:11:42.865Z,14.60
2022-11-12T18:14:10.188Z,13.07
2022-11-12T18:16:38.070Z,16.02
2022-11-12T18:19:09.557Z,12.77
2022-11-12T18:21:39.011Z,12.70
2022-11-12T18:24:07.423Z,13.15
2022-11-12T18:26:34.380Z,12.73
2022-11-12T18:29:01.284Z,14.10
2022-11-12T18:31:28.751Z,12.23
2022-11-12T18:33:56.153Z,11.73
2022-11-12T18:36:24.782Z,10.68
2022-11-12T18:38:56.194Z,10.48
2022-11-12T18:41:30.777Z,9.18
2022-11-12T18:43:57.881Z,11.32
2022-11-12T18:46:24.816Z,10.98
2022-11-12T18:48:53.082Z,10.40
2022-11-12T18:51:20.318Z,10.32
2022-11-12T18:53:47.308Z,10.90
2022-11-12T18:56:19.554Z,9.65
2022-11-12T18:58:47.189Z,8.88
2022-11-12T19:01:21.263Z,10.05
2022-11-12T19:03:53.558Z,9.35
2022-11-12T19:06:21.253Z,9.18
2022-11-12T19:08:50.088Z,8.25
2022-11-12T19:11:19.156Z,8.18
2022-11-12T19:13:49.774Z,6.60
2022-11-12T19:16:18.840Z,6.50
2022-11-12T19:18:48.204Z,4.97
2022-11-12T19:24:03.045Z,5.53
2022-11-12T19:26:30.109Z,4.82
2022-11-12T19:28:56.992Z,5.30
2022-11-12T19:31:26.211Z,4.53
2022-11-12T19:33:55.417Z,4.72
2022-11-12T19:36:25.469Z,4.57
2022-11-12T19:39:00.024Z,4.40
2022-11-12T19:41:28.379Z,5.55
2022-11-12T19:43:56.182Z,5.75
2022-11-12T19:46:23.037Z,5.55
2022-11-12T19:48:52.789Z,6.97
2022-11-12T19:51:20.153Z,11.15
2022-11-12T19:53:49.589Z,9.77
2022-11-12T19:56:23.142Z,10.27
2022-11-12T19:58:50.428Z,9.13
2022-11-12T20:01:19.114Z,11.75
2022-11-12T20:03:53.343Z,11.77
2022-11-12T20:06:23.336Z,12.60
2022-11-12T20:08:51.047Z,11.82
2022-11-12T20:11:21.940Z,11.63
2022-11-12T20:13:52.040Z,11.88
2022-11-12T20:16:25.518Z,11.88
2022-11-12T20:18:55.864Z,14.07
2022-11-12T20:21:24.119Z,12.90
2022-11-12T20:23:50.950Z,11.73
2022-11-12T20:26:28.973Z,12.73
2022-11-12T20:28:57.266Z,15.38
2022-11-12T20:31:24.538Z,16.98
2022-11-12T20:33:51.590Z,17.08
2022-11-12T20:36:26.818Z,17.48
2022-11-12T20:38:53.656Z,14.27
2022-11-12T20:41:26.573Z,14.48
2022-11-12T20:43:55.320Z,15.02
2022-11-12T20:46:22.178Z,15.85
2022-11-12T20:48:49.041Z,13.80
2022-11-12T20:51:24.768Z,15.88
2022-11-12T20:54:00.468Z,15.60
2022-11-12T20:56:31.173Z,14.45
2022-11-12T20:58:59.446Z,15.27
2022-11-12T21:01:31.144Z,13.93
2022-11-12T21:03:58.416Z,13.27
2022-11-12T21:06:29.193Z,11.95
2022-11-12T21:09:02.239Z,10.30
2022-11-12T21:11:31.635Z,11.65
2022-11-12T21:14:00.433Z,11.45
2022-11-12T21:16:29.165Z,18.75
2022-11-12T21:19:01.087Z,16.95
2022-11-12T21:21:31.592Z,33.83
2022-11-12T21:24:04.439Z,14.00
2022-11-12T21:26:34.729Z,12.65
2022-11-12T21:29:02.918Z,15.45
2022-11-12T21:31:32.762Z,11.70
2022-11-12T21:34:04.103Z,9.90
2022-11-12T21:36:32.421Z,10.10
2022-11-12T21:38:59.235Z,8.90
2022-11-12T21:41:28.191Z,9.43
2022-11-12T21:43:55.436Z,8.50
2022-11-12T21:46:28.227Z,9.15
2022-11-12T21:48:57.019Z,6.47
2022-11-12T21:51:28.928Z,4.32
2022-11-12T21:53:58.358Z,4.10
2022-11-12T21:56:25.504Z,4.70
2022-11-12T21:58:53.944Z,4.28
2022-11-12T22:01:25.037Z,3.80
2022-11-12T22:03:53.784Z,3.80
2022-11-12T22:06:23.810Z,4.57
2022-11-12T22:08:55.100Z,3.78
2022-11-12T22:11:22.830Z,3.55
2022-11-12T22:13:52.244Z,3.70
2022-11-12T22:16:23.944Z,4.43
2022-11-12T22:18:53.585Z,4.22
2022-11-12T22:21:32.111Z,5.50
2022-11-12T22:24:03.221Z,7.70
2022-11-12T22:26:30.040Z,5.78
2022-11-12T22:29:00.464Z,4.32
2022-11-12T22:31:32.914Z,10.70
2022-11-12T22:34:01.244Z,4.72
2022-11-12T22:36:30.460Z,3.50
2022-11-12T22:38:57.720Z,3.80
2022-11-12T22:41:26.882Z,4.10
2022-11-12T22:43:59.006Z,6.75
2022-11-12T22:48:55.697Z,7.80
2022-11-12T22:51:25.364Z,8.65
2022-11-12T22:53:57.460Z,12.43
2022-11-12T22:58:53.089Z,14.75
2022-11-12T23:01:24.359Z,15.43
2022-11-12T23:03:54.048Z,15.85
2022-11-12T23:06:20.947Z,24.63
2022-11-12T23:08:48.338Z,16.80
2022-11-12T23:11:17.894Z,18.27
2022-11-12T23:13:45.061Z,18.67
2022-11-12T23:16:15.344Z,18.20
2022-11-12T23:18:42.940Z,18.50
2022-11-12T23:21:15.620Z,20.58
2022-11-12T23:23:43.258Z,16.65
2022-11-12T23:26:22.239Z,17.60
2022-11-12T23:28:49.588Z,14.63
2022-11-12T23:31:21.536Z,11.60
2022-11-12T23:33:51.204Z,9.07
2022-11-12T23:36:19.352Z,8.93
2022-11-12T23:38:46.269Z,6.53
2022-11-12T23:41:16.258Z,6.03
2022-11-12T23:43:44.166Z,5.82
2022-11-12T23:46:11.721Z,3.55
2022-11-12T23:48:38.524Z,4.20
2022-11-12T23:51:10.541Z,3.30
2022-11-12T23:53:38.430Z,3.13
2022-11-12T23:56:08.502Z,2.20
2022-11-12T23:58:36.258Z,0.90
